This is the latest recevied weather packets stored in our database for station/object AC4AG. If no packets are shown the sender has not sent any weather packets the latest 10 day(s).
| Time | Temp. | Humidity | Pressure | Rain* | Wind** | Luminosity | Snow |
|---|---|---|---|---|---|---|---|
| 1777306006 | 22.78° C | 63% | 1016.7 hPa | 0 mm | - | 648 W/m² | - |
| 1777305703 | 22.22° C | 64% | 1016.8 hPa | 0 mm | - | 648 W/m² | - |
| 1777305399 | 22.22° C | 65% | 1016.8 hPa | 0 mm | - | 552 W/m² | - |
| 1777305093 | 22.22° C | 65% | 1016.9 hPa | 0 mm | - | 604 W/m² | - |
| 1777304788 | 22.22° C | 64% | 1016.9 hPa | 0 mm | - | 602 W/m² | - |
| 1777304486 | 22.22° C | 64% | 1016.9 hPa | 0 mm | - | 681 W/m² | - |
| 1777304184 | 22.22° C | 66% | 1017.1 hPa | 0 mm | - | 631 W/m² | - |
| 1777303880 | 22.22° C | 63% | 1016.8 hPa | 0 mm | - | 616 W/m² | - |
| 1777303577 | 21.67° C | 67% | 1017.3 hPa | 0 mm | - | 616 W/m² | - |
| 1777303274 | 21.67° C | 67% | 1017 hPa | 0 mm | - | 565 W/m² | - |
| 1777302972 | 21.67° C | 65% | 1017.3 hPa | 0 mm | - | 584 W/m² | - |
| 1777302668 | 21.67° C | 66% | 1017.4 hPa | 0 mm | - | 562 W/m² | - |
| 1777302367 | 20.56° C | 69% | 1017.4 hPa | 0 mm | - | 524 W/m² | - |
| 1777302065 | 20.56° C | 70% | 1017.1 hPa | 0 mm | - | 438 W/m² | - |
| 1777301763 | 20.56° C | 70% | 1017.7 hPa | 0 mm | - | 346 W/m² | - |
| 1777301459 | 20.56° C | 72% | 1017.7 hPa | 0 mm | - | 312 W/m² | - |
| 1777301156 | 20° C | 72% | 1017.6 hPa | 0 mm | - | 318 W/m² | - |
| 1777300853 | 20° C | 69% | 1017.6 hPa | 0 mm | - | 308 W/m² | - |
| 1777300551 | 20° C | 71% | 1017.6 hPa | 0 mm | - | 309 W/m² | - |
| 1777300248 | 20° C | 72% | 1017.4 hPa | 0 mm | - | 405 W/m² | - |
| 1777299944 | 20.56° C | 71% | 1017.4 hPa | 0 mm | - | 488 W/m² | - |
| 1777299641 | 20° C | 72% | 1017.3 hPa | 0 mm | - | 575 W/m² | - |
| 1777299340 | 20° C | 73% | 1017.1 hPa | 0 mm | - | 512 W/m² | - |
| 1777299037 | 20° C | 73% | 1017.1 hPa | 0 mm | - | 504 W/m² | - |
| 1777298734 | 19.44° C | 75% | 1017 hPa | 0 mm | - | 474 W/m² | - |
* Rain latest hour (hover to see other rain measurements)
** Current wind speed in m/s (hover to see current wind gust speed)